Romeoville, IL

11:57 AM CST on February 07, 2016 (GMT -0600)
Woodbrook Ln | | Change Station
CLOSE
Current Station
Personal Weather Station
Location: Lockport, IL
Elevation: 648 ft
Nearby Weather Stations

Elev 648 ft 41.62 °N, 88.05 °W | Updated 40 minutes ago

Clear
Clear
43.9 °F
Feels Like 44 °F
N
2.0
Wind Variable Wind from SW
Gusts 7.0 mph

Today
High -- | Low -- °F
--% Chance of Precip.
Yesterday
High -- | Low -- °F
Precip. -- in
Pressure 29.78 in
Visibility 10.0 miles
Clouds Clear
Windchill 44 °F
Dew Point 34 °F
Humidity 67%
Rainfall 0.00 in
Snow Depth Not available.
6:58 AM 5:15 PM
Waning Crescent, 1% visible
METAR KLOT 071735Z AUTO 24016G22KT 10SM CLR 06/00 A2978 RMK AO2 T00581005
Pressure 29.78 in
Visibility 10.0 miles
Clouds Clear
Windchill 44 °F
Dew Point 34 °F
Humidity 67%
Rainfall 0.00 in
Snow Depth Not available.
6:58 AM 5:15 PM
Waning Crescent, 1% visible
METAR KLOT 071735Z AUTO 24016G22KT 10SM CLR 06/00 A2978 RMK AO2 T00581005

10-Day Weather Forecast

Almanac

Astronomy

Feb. 07, 2016 Rise Set
Actual Time
Civil Twilight
Nautical Twilight
Astronomical Twilight
Moon
Length of Visible Light
Length of Day
Tomorrow will be .
, % of the Moon is Illuminated

Today's Extremes

State Highs State Lows

Community

WunderPhotos

Upload Photos

1,891,248 photos uploaded!

WunderBlog® & News

Nearby

Air Quality

  Air Quality AQ Index Pollutant
Not available.

Snow Depth

Station Depth Elevation

Earthquake Activity

City Distance Mag. Time & Date
Minimum magnitude displayed is 2.5.

Coastal Water Temperatures

Place Temperature

Stations

Nearby Weather Stations

Station Location Temp. Windchill Dew Point Humidity Wind Precip. Elev Updated Type
                   

Watches & Warnings

There are currently no watches in effect.